createdAt,value
2019-04-21T00:02:24.116Z,8.82
2019-04-21T00:05:00.847Z,8.75
2019-04-21T00:07:36.196Z,8.70
2019-04-21T00:10:14.994Z,8.61
2019-04-21T00:12:40.516Z,8.52
2019-04-21T00:15:01.993Z,8.47
2019-04-21T00:17:27.069Z,8.39
2019-04-21T00:20:09.161Z,8.33
2019-04-21T00:22:41.312Z,8.30
2019-04-21T00:25:15.367Z,8.23
2019-04-21T00:27:47.830Z,8.18
2019-04-21T00:30:30.341Z,8.17
2019-04-21T00:32:50.240Z,8.06
2019-04-21T00:35:13.362Z,8.02
2019-04-21T00:38:00.538Z,7.86
2019-04-21T00:40:35.532Z,7.73
2019-04-21T00:43:01.262Z,7.71
2019-04-21T00:45:29.084Z,7.63
2019-04-21T00:48:08.272Z,7.62
2019-04-21T00:50:40.749Z,7.50
2019-04-21T00:53:14.850Z,7.42
2019-04-21T00:55:50.688Z,7.40
2019-04-21T00:58:28.415Z,7.32
2019-04-21T01:00:51.094Z,7.30
2019-04-21T01:03:26.667Z,7.26
2019-04-21T01:08:25.123Z,7.20
2019-04-21T01:10:49.950Z,7.19
2019-04-21T01:13:36.282Z,7.08
2019-04-21T01:16:22.299Z,7.07
2019-04-21T01:18:32.637Z,7.04
2019-04-21T01:20:43.177Z,7.06
2019-04-21T01:23:12.881Z,7.00
2019-04-21T01:25:57.169Z,6.98
2019-04-21T01:28:29.268Z,6.97
2019-04-21T01:31:07.517Z,6.90
2019-04-21T01:33:42.829Z,6.91
2019-04-21T01:36:03.899Z,6.86
2019-04-21T01:38:40.245Z,6.81
2019-04-21T01:41:16.314Z,6.80
2019-04-21T01:43:39.519Z,6.77
2019-04-21T01:46:10.732Z,6.70
2019-04-21T01:48:41.650Z,6.63
2019-04-21T01:51:15.058Z,6.59
2019-04-21T01:53:56.455Z,6.56
2019-04-21T01:56:31.798Z,6.45
2019-04-21T01:58:53.262Z,6.44
2019-04-21T02:01:36.042Z,6.34
2019-04-21T02:04:01.142Z,6.32
2019-04-21T02:06:36.209Z,6.25
2019-04-21T02:09:08.262Z,6.25
2019-04-21T02:11:43.333Z,6.24
2019-04-21T02:14:10.207Z,6.21
2019-04-21T02:16:40.515Z,6.23
2019-04-21T02:19:08.450Z,6.23
2019-04-21T02:21:38.279Z,6.19
2019-04-21T02:24:25.458Z,6.09
2019-04-21T02:26:45.754Z,6.03
2019-04-21T02:29:20.564Z,5.92
2019-04-21T02:32:01.921Z,5.94
2019-04-21T02:34:32.224Z,5.94
2019-04-21T02:37:17.630Z,5.93
2019-04-21T02:42:20.078Z,5.99
2019-04-21T02:44:42.901Z,5.92
2019-04-21T02:47:14.186Z,5.88
2019-04-21T02:52:30.023Z,5.89
2019-04-21T02:57:15.826Z,5.87
2019-04-21T02:59:50.050Z,5.90
2019-04-21T03:05:13.566Z,5.87
2019-04-21T03:07:44.671Z,5.86
2019-04-21T03:10:12.213Z,5.88
2019-04-21T03:12:42.069Z,5.86
2019-04-21T03:15:22.050Z,5.72
2019-04-21T03:17:55.353Z,5.68
2019-04-21T03:20:18.978Z,5.70
2019-04-21T03:23:15.346Z,5.60
2019-04-21T03:28:00.781Z,5.51
2019-04-21T03:33:35.537Z,5.54
2019-04-21T03:37:52.992Z,5.39
2019-04-21T03:40:26.056Z,5.38
2019-04-21T03:42:57.801Z,5.30
2019-04-21T03:45:39.226Z,5.28
2019-04-21T03:48:05.293Z,5.26
2019-04-21T03:53:02.946Z,5.22
2019-04-21T04:00:58.590Z,5.14
2019-04-21T04:03:42.148Z,5.18
2019-04-21T04:11:03.047Z,5.15
2019-04-21T04:13:39.703Z,5.18
2019-04-21T04:16:05.753Z,5.09
2019-04-21T04:18:41.157Z,5.04
2019-04-21T04:21:12.241Z,4.89
2019-04-21T04:23:41.824Z,4.91
2019-04-21T04:26:07.407Z,4.93
2019-04-21T04:31:19.625Z,5.14
2019-04-21T04:38:52.150Z,5.43
2019-04-21T04:41:24.504Z,5.50
2019-04-21T04:43:54.591Z,5.61
2019-04-21T04:46:17.897Z,5.69
2019-04-21T04:48:57.299Z,5.85
2019-04-21T04:51:36.722Z,6.01
2019-04-21T04:53:51.162Z,6.13
2019-04-21T04:56:31.103Z,6.28
2019-04-21T04:59:24.542Z,6.42
2019-04-21T05:01:51.446Z,6.57
2019-04-21T05:06:42.469Z,6.84
2019-04-21T05:09:10.946Z,6.99
2019-04-21T05:16:46.937Z,7.40
2019-04-21T05:19:16.111Z,7.50
2019-04-21T05:24:01.351Z,7.79
2019-04-21T05:26:36.066Z,7.96
2019-04-21T05:28:58.828Z,8.15
2019-04-21T05:31:57.045Z,8.26
2019-04-21T05:34:22.102Z,8.42
2019-04-21T05:36:56.796Z,8.62
2019-04-21T05:39:42.097Z,8.84
2019-04-21T05:42:10.234Z,8.99
2019-04-21T05:45:00.191Z,9.13
2019-04-21T05:49:55.955Z,9.45
2019-04-21T05:52:22.825Z,9.62
2019-04-21T05:55:05.912Z,9.75
2019-04-21T05:57:33.560Z,9.88
2019-04-21T06:00:07.096Z,9.99
2019-04-21T06:02:38.485Z,10.15
2019-04-21T06:05:20.319Z,10.24
2019-04-21T06:07:41.038Z,10.37
2019-04-21T06:10:18.758Z,10.49
2019-04-21T06:12:46.661Z,10.59
2019-04-21T06:15:14.009Z,10.72
2019-04-21T06:17:54.937Z,10.85
2019-04-21T06:20:15.388Z,10.91
2019-04-21T06:22:52.014Z,11.07
2019-04-21T06:27:50.786Z,11.25
2019-04-21T06:30:19.476Z,11.40
2019-04-21T06:32:52.175Z,11.54
2019-04-21T06:35:39.743Z,11.66
2019-04-21T06:38:10.387Z,11.73
2019-04-21T06:40:35.820Z,11.90
2019-04-21T06:43:17.998Z,11.91
2019-04-21T06:45:45.936Z,12.04
2019-04-21T06:48:15.312Z,12.19
2019-04-21T06:50:46.647Z,12.33
2019-04-21T06:53:12.006Z,12.45
2019-04-21T06:55:41.891Z,12.50
2019-04-21T06:58:15.876Z,12.61
2019-04-21T07:00:41.343Z,12.71
2019-04-21T07:05:50.107Z,12.91
2019-04-21T07:08:34.635Z,12.95
2019-04-21T07:10:52.033Z,12.96
2019-04-21T07:13:15.332Z,13.03
2019-04-21T07:15:58.814Z,13.10
2019-04-21T07:18:27.524Z,13.18
2019-04-21T07:20:53.112Z,13.31
2019-04-21T07:23:32.259Z,13.40
2019-04-21T07:26:01.057Z,13.55
2019-04-21T07:28:25.364Z,13.64
2019-04-21T07:31:03.653Z,13.75
2019-04-21T07:36:03.966Z,13.89
2019-04-21T07:38:36.776Z,13.88
2019-04-21T07:40:59.607Z,14.00
2019-04-21T07:43:31.460Z,13.94
2019-04-21T07:46:03.625Z,14.00
2019-04-21T07:48:43.143Z,14.01
2019-04-21T07:51:18.859Z,14.18
2019-04-21T07:53:59.665Z,14.35
2019-04-21T07:56:09.231Z,14.48
2019-04-21T07:59:00.155Z,14.68
2019-04-21T08:01:25.725Z,14.71
2019-04-21T08:04:03.435Z,14.67
2019-04-21T08:07:06.335Z,14.82
2019-04-21T08:09:01.188Z,14.95
2019-04-21T08:11:25.470Z,15.22
2019-04-21T08:14:00.580Z,15.51
2019-04-21T08:16:35.020Z,15.68
2019-04-21T08:19:09.693Z,15.83
2019-04-21T08:21:35.451Z,15.89
2019-04-21T08:24:08.817Z,15.92
2019-04-21T08:26:45.060Z,15.97
2019-04-21T08:29:22.464Z,16.12
2019-04-21T08:31:50.008Z,16.26
2019-04-21T08:34:14.125Z,16.28
2019-04-21T08:36:40.315Z,16.61
2019-04-21T08:39:13.183Z,16.91
2019-04-21T08:41:45.331Z,17.16
2019-04-21T08:44:24.304Z,17.24
2019-04-21T08:46:52.608Z,17.39
2019-04-21T08:49:22.209Z,17.31
2019-04-21T08:51:53.862Z,17.27
2019-04-21T08:54:26.474Z,17.27
2019-04-21T08:57:01.275Z,17.51
2019-04-21T08:59:38.774Z,17.68
2019-04-21T09:02:18.143Z,17.98
2019-04-21T09:04:50.741Z,18.21
2019-04-21T09:07:23.916Z,18.37
2019-04-21T09:09:50.006Z,18.56
2019-04-21T09:12:21.292Z,18.56
2019-04-21T09:14:54.231Z,18.66
2019-04-21T09:17:17.700Z,18.97
2019-04-21T09:20:01.792Z,18.85
2019-04-21T09:22:28.357Z,19.13
2019-04-21T09:24:59.760Z,19.42
2019-04-21T09:27:26.521Z,19.58
2019-04-21T09:29:48.967Z,19.87
2019-04-21T09:32:18.244Z,19.67
2019-04-21T09:34:45.646Z,19.63
2019-04-21T09:37:26.533Z,19.96
2019-04-21T09:39:49.972Z,20.12
2019-04-21T09:42:19.726Z,20.26
2019-04-21T09:44:53.852Z,20.53
2019-04-21T09:47:23.484Z,20.91
2019-04-21T09:49:51.943Z,21.55
2019-04-21T09:52:27.029Z,21.72
2019-04-21T09:55:04.004Z,22.27
2019-04-21T09:57:36.692Z,22.44
2019-04-21T10:00:02.204Z,22.97
2019-04-21T10:02:34.235Z,23.60
2019-04-21T10:04:59.477Z,24.31
2019-04-21T10:07:34.705Z,24.86
2019-04-21T10:10:00.531Z,24.76
2019-04-21T10:12:30.685Z,24.93
2019-04-21T10:15:00.286Z,25.19
2019-04-21T10:17:32.933Z,25.10
2019-04-21T10:20:03.161Z,25.32
2019-04-21T10:22:33.087Z,26.06
2019-04-21T10:25:06.770Z,26.06
2019-04-21T10:27:39.376Z,26.15
2019-04-21T10:30:10.127Z,26.11
2019-04-21T10:32:40.617Z,26.12
2019-04-21T10:35:10.998Z,26.68
2019-04-21T10:37:50.414Z,26.28
2019-04-21T10:40:13.718Z,26.50
2019-04-21T10:42:43.477Z,26.72
2019-04-21T10:45:14.793Z,26.41
2019-04-21T10:47:45.042Z,26.82
2019-04-21T10:50:16.158Z,27.31
2019-04-21T10:52:59.116Z,26.82
2019-04-21T10:55:44.721Z,26.67
2019-04-21T10:58:06.505Z,27.12
2019-04-21T11:00:36.782Z,26.57
2019-04-21T11:03:24.829Z,26.82
2019-04-21T11:05:56.700Z,27.47
2019-04-21T11:08:32.281Z,27.30
2019-04-21T11:10:58.210Z,26.45
2019-04-21T11:13:28.409Z,26.47
2019-04-21T11:15:59.172Z,26.87
2019-04-21T11:18:30.091Z,27.18
2019-04-21T11:21:00.858Z,26.32
2019-04-21T11:23:31.274Z,26.10
2019-04-21T11:26:04.469Z,26.07
2019-04-21T11:28:34.629Z,26.81
2019-04-21T11:31:04.964Z,27.29
2019-04-21T11:33:35.616Z,27.53
2019-04-21T11:36:06.927Z,27.36
2019-04-21T11:38:54.282Z,28.04
2019-04-21T11:41:09.894Z,28.01
2019-04-21T11:43:39.527Z,28.11
2019-04-21T11:46:10.671Z,27.52
2019-04-21T11:48:40.492Z,27.35
2019-04-21T11:51:11.030Z,27.79
2019-04-21T11:53:41.104Z,27.41
2019-04-21T11:56:10.849Z,27.47
2019-04-21T11:58:41.570Z,27.39
2019-04-21T12:01:11.628Z,27.48
2019-04-21T12:03:41.973Z,28.17
2019-04-21T12:06:11.646Z,28.45
2019-04-21T12:08:46.201Z,28.81
2019-04-21T12:11:13.703Z,28.33
2019-04-21T12:13:43.353Z,28.06
2019-04-21T12:16:13.109Z,27.62
2019-04-21T12:18:43.013Z,27.80
2019-04-21T12:21:13.606Z,27.10
2019-04-21T12:23:44.667Z,27.18
2019-04-21T12:26:15.846Z,26.86
2019-04-21T12:28:45.986Z,26.21
2019-04-21T12:31:23.500Z,26.41
2019-04-21T12:34:00.444Z,25.27
2019-04-21T12:36:31.634Z,24.93
2019-04-21T12:39:03.703Z,25.08
2019-04-21T12:41:33.011Z,25.03
2019-04-21T12:44:02.676Z,25.11
2019-04-21T12:46:32.253Z,24.73
2019-04-21T12:49:02.210Z,24.78
2019-04-21T12:51:33.620Z,24.49
2019-04-21T12:54:03.816Z,24.04
2019-04-21T12:56:33.712Z,24.23
2019-04-21T12:59:03.505Z,24.06
2019-04-21T13:01:34.979Z,23.92
2019-04-21T13:04:05.899Z,23.85
2019-04-21T13:06:35.754Z,23.81
2019-04-21T13:09:10.752Z,23.58
2019-04-21T13:11:39.261Z,23.41
2019-04-21T13:14:09.079Z,23.28
2019-04-21T13:16:39.229Z,23.38
2019-04-21T13:19:09.393Z,23.32
2019-04-21T13:21:40.321Z,22.99
2019-04-21T13:24:10.051Z,23.03
2019-04-21T13:26:48.426Z,23.07
2019-04-21T13:29:12.264Z,23.24
2019-04-21T13:31:42.581Z,23.39
2019-04-21T13:34:13.676Z,23.33
2019-04-21T13:36:43.760Z,23.30
2019-04-21T13:39:50.291Z,23.39
2019-04-21T13:42:13.418Z,23.23
2019-04-21T13:44:35.030Z,23.10
2019-04-21T13:47:05.015Z,23.04
2019-04-21T13:49:35.129Z,23.15
2019-04-21T13:52:04.966Z,23.04
2019-04-21T13:54:35.693Z,23.38
2019-04-21T13:57:05.471Z,23.52
2019-04-21T13:59:36.321Z,23.51
2019-04-21T14:02:06.865Z,23.56
2019-04-21T14:04:37.849Z,23.52
2019-04-21T14:07:08.198Z,23.37
2019-04-21T14:09:47.660Z,23.29
2019-04-21T14:12:09.738Z,23.20
2019-04-21T14:14:39.976Z,23.34
2019-04-21T14:17:10.869Z,23.46
2019-04-21T14:19:41.554Z,23.65
2019-04-21T14:22:13.926Z,23.46
2019-04-21T14:24:43.851Z,23.50
2019-04-21T14:27:14.377Z,23.57
2019-04-21T14:29:44.091Z,23.72
2019-04-21T14:32:14.082Z,23.72
2019-04-21T14:34:44.349Z,23.72
2019-04-21T14:37:15.087Z,23.79
2019-04-21T14:39:52.783Z,23.72
2019-04-21T14:42:16.108Z,23.89
2019-04-21T14:44:46.933Z,23.95
2019-04-21T14:47:18.836Z,24.02
2019-04-21T14:49:51.054Z,23.84
2019-04-21T14:52:25.378Z,23.95
2019-04-21T14:54:56.671Z,23.70
2019-04-21T14:57:27.361Z,23.73
2019-04-21T14:59:57.375Z,23.68
2019-04-21T15:02:27.769Z,23.79
2019-04-21T15:04:57.897Z,23.54
2019-04-21T15:07:27.660Z,23.62
2019-04-21T15:10:04.434Z,23.66
2019-04-21T15:12:29.904Z,23.51
2019-04-21T15:15:00.189Z,23.48
2019-04-21T15:17:29.842Z,23.55
2019-04-21T15:20:04.597Z,23.38
2019-04-21T15:22:30.854Z,23.38
2019-04-21T15:25:00.721Z,23.41
2019-04-21T15:27:30.728Z,23.43
2019-04-21T15:30:00.668Z,23.47
2019-04-21T15:32:30.671Z,23.33
2019-04-21T15:35:00.527Z,23.27
2019-04-21T15:37:31.598Z,23.23
2019-04-21T15:40:12.271Z,23.32
2019-04-21T15:42:32.830Z,23.29
2019-04-21T15:45:02.924Z,23.27
2019-04-21T15:47:33.788Z,23.19
2019-04-21T15:50:10.512Z,23.10
2019-04-21T15:52:35.881Z,23.05
2019-04-21T15:55:12.631Z,23.02
2019-04-21T15:58:02.694Z,23.04
2019-04-21T16:00:42.943Z,23.09
2019-04-21T16:03:12.969Z,23.12
2019-04-21T16:05:42.733Z,23.06
2019-04-21T16:08:12.368Z,22.99
2019-04-21T16:10:48.929Z,22.87
2019-04-21T16:13:13.940Z,22.88
2019-04-21T16:15:44.297Z,23.03
2019-04-21T16:18:14.206Z,23.21
2019-04-21T16:20:44.013Z,23.49
2019-04-21T16:23:14.890Z,24.27
2019-04-21T16:25:44.602Z,25.27
2019-04-21T16:28:15.443Z,26.66
2019-04-21T16:30:46.457Z,28.02
2019-04-21T16:33:16.224Z,28.02
2019-04-21T16:35:47.492Z,28.06
2019-04-21T16:38:17.551Z,27.65
2019-04-21T16:40:54.178Z,26.22
2019-04-21T16:43:19.958Z,23.97
2019-04-21T16:45:50.757Z,23.97
2019-04-21T16:48:21.167Z,23.31
2019-04-21T16:50:52.006Z,22.53
2019-04-21T16:53:30.294Z,22.14
2019-04-21T16:56:02.666Z,21.77
2019-04-21T16:58:46.418Z,21.51
2019-04-21T17:01:20.029Z,21.17
2019-04-21T17:03:50.245Z,20.88
2019-04-21T17:06:20.186Z,20.78
2019-04-21T17:08:50.590Z,20.65
2019-04-21T17:11:26.171Z,20.55
2019-04-21T17:13:52.065Z,20.35
2019-04-21T17:16:55.157Z,20.36
2019-04-21T17:19:01.888Z,20.22
2019-04-21T17:21:25.951Z,20.16
2019-04-21T17:23:56.646Z,20.05
2019-04-21T17:26:27.011Z,19.93
2019-04-21T17:28:56.779Z,19.85
2019-04-21T17:31:26.792Z,19.78
2019-04-21T17:34:02.144Z,19.72
2019-04-21T17:36:29.318Z,19.67
2019-04-21T17:39:00.116Z,19.57
2019-04-21T17:41:36.459Z,19.49
2019-04-21T17:44:02.585Z,19.41
2019-04-21T17:46:40.703Z,19.27
2019-04-21T17:49:05.223Z,19.24
2019-04-21T17:51:52.651Z,19.10
2019-04-21T17:54:24.789Z,18.92
2019-04-21T17:57:12.491Z,18.73
2019-04-21T17:59:51.053Z,18.59
2019-04-21T18:02:13.194Z,18.38
2019-04-21T18:04:42.971Z,18.23
2019-04-21T18:07:26.094Z,18.05
2019-04-21T18:10:00.456Z,17.86
2019-04-21T18:12:28.068Z,17.59
2019-04-21T18:14:52.957Z,17.38
2019-04-21T18:17:16.238Z,17.28
2019-04-21T18:19:49.047Z,17.16
2019-04-21T18:22:37.100Z,17.02
2019-04-21T18:25:09.888Z,16.93
2019-04-21T18:27:36.627Z,16.84
2019-04-21T18:30:12.549Z,16.67
2019-04-21T18:32:42.536Z,16.63
2019-04-21T18:35:17.732Z,16.42
2019-04-21T18:38:04.546Z,16.35
2019-04-21T18:40:31.733Z,16.17
2019-04-21T18:43:38.355Z,16.09
2019-04-21T18:46:06.997Z,16.06
2019-04-21T18:48:21.833Z,16.10
2019-04-21T18:51:00.287Z,16.19
2019-04-21T18:53:44.949Z,16.24
2019-04-21T18:56:05.682Z,16.27
2019-04-21T18:58:32.659Z,16.27
2019-04-21T19:01:07.541Z,16.25
2019-04-21T19:03:40.994Z,16.24
2019-04-21T19:06:11.736Z,16.21
2019-04-21T19:08:59.754Z,16.11
2019-04-21T19:11:24.026Z,15.98
2019-04-21T19:14:20.357Z,15.88
2019-04-21T19:16:41.513Z,15.77
2019-04-21T19:19:38.274Z,15.66
2019-04-21T19:21:40.404Z,15.62
2019-04-21T19:26:57.466Z,15.34
2019-04-21T19:29:26.706Z,15.28
2019-04-21T19:31:49.677Z,15.24
2019-04-21T19:34:11.324Z,15.13
2019-04-21T19:36:34.453Z,15.04
2019-04-21T19:39:13.475Z,15.02
2019-04-21T19:41:52.139Z,14.94
2019-04-21T19:44:30.691Z,14.92
2019-04-21T19:46:58.350Z,14.87
2019-04-21T19:49:32.067Z,14.88
2019-04-21T19:51:53.988Z,14.89
2019-04-21T19:54:24.276Z,14.89
2019-04-21T19:56:47.094Z,14.91
2019-04-21T19:59:19.974Z,14.85
2019-04-21T20:01:49.974Z,14.79
2019-04-21T20:04:20.028Z,14.74
2019-04-21T20:07:01.756Z,14.72
2019-04-21T20:09:37.512Z,14.68
2019-04-21T20:12:08.205Z,14.66
2019-04-21T20:17:08.455Z,14.66
2019-04-21T20:19:26.795Z,14.64
2019-04-21T20:21:56.917Z,14.67
2019-04-21T20:24:30.317Z,14.63
2019-04-21T20:27:06.932Z,14.63
2019-04-21T20:29:49.834Z,14.61
2019-04-21T20:32:24.377Z,14.58
2019-04-21T20:34:57.795Z,14.50
2019-04-21T20:37:21.310Z,14.47
2019-04-21T20:39:46.061Z,14.44
2019-04-21T20:42:20.867Z,14.39
2019-04-21T20:44:58.370Z,14.37
2019-04-21T20:47:22.239Z,14.31
2019-04-21T20:49:51.143Z,14.33
2019-04-21T20:52:41.734Z,14.33
2019-04-21T20:54:56.831Z,14.29
2019-04-21T20:57:29.928Z,14.30
2019-04-21T21:00:05.746Z,14.28
2019-04-21T21:02:39.057Z,14.26
2019-04-21T21:04:57.275Z,14.23
2019-04-21T21:07:49.202Z,14.23
2019-04-21T21:10:10.945Z,14.20
2019-04-21T21:12:46.746Z,14.14
2019-04-21T21:15:06.485Z,14.13
2019-04-21T21:17:52.579Z,14.08
2019-04-21T21:20:18.029Z,14.07
2019-04-21T21:22:43.849Z,14.06
2019-04-21T21:25:23.369Z,13.99
2019-04-21T21:27:41.864Z,13.97
2019-04-21T21:30:15.683Z,13.93
2019-04-21T21:33:05.613Z,13.91
2019-04-21T21:35:29.622Z,13.85
2019-04-21T21:38:08.242Z,13.86
2019-04-21T21:40:38.260Z,13.76
2019-04-21T21:42:53.327Z,13.78
2019-04-21T21:45:25.918Z,13.70
2019-04-21T21:48:11.085Z,13.68
2019-04-21T21:50:38.660Z,13.65
2019-04-21T21:53:05.878Z,13.65
2019-04-21T21:55:31.110Z,13.56
2019-04-21T21:58:03.475Z,13.48
2019-04-21T22:00:37.950Z,13.43
2019-04-21T22:03:14.769Z,13.32
2019-04-21T22:05:48.210Z,13.26
2019-04-21T22:08:06.848Z,13.26
2019-04-21T22:10:36.959Z,13.17
2019-04-21T22:13:12.284Z,13.05
2019-04-21T22:15:37.948Z,12.95
2019-04-21T22:18:24.708Z,12.81
2019-04-21T22:20:53.787Z,12.71
2019-04-21T22:23:23.425Z,12.65
2019-04-21T22:25:42.443Z,12.54
2019-04-21T22:28:13.911Z,12.51
2019-04-21T22:30:47.521Z,12.49
2019-04-21T22:33:18.094Z,12.37
2019-04-21T22:35:52.071Z,12.31
2019-04-21T22:38:31.085Z,12.20
2019-04-21T22:41:02.896Z,12.14
2019-04-21T22:43:28.486Z,12.02
2019-04-21T22:45:51.717Z,11.95
2019-04-21T22:48:26.285Z,11.95
2019-04-21T22:50:52.787Z,11.94
2019-04-21T22:53:23.059Z,11.83
2019-04-21T22:56:00.089Z,11.75
2019-04-21T22:58:29.295Z,11.72
2019-04-21T23:00:58.405Z,11.64
2019-04-21T23:03:28.918Z,11.55
2019-04-21T23:06:01.477Z,11.53
2019-04-21T23:08:37.045Z,11.45
2019-04-21T23:11:06.270Z,11.32
2019-04-21T23:13:34.544Z,11.28
2019-04-21T23:16:06.221Z,11.20
2019-04-21T23:18:53.005Z,11.19
2019-04-21T23:21:23.409Z,11.10
2019-04-21T23:23:59.602Z,11.04
2019-04-21T23:26:26.481Z,10.95
2019-04-21T23:29:01.987Z,10.89
2019-04-21T23:31:37.159Z,10.82
2019-04-21T23:33:44.508Z,10.83
2019-04-21T23:36:19.357Z,10.84
2019-04-21T23:38:49.427Z,10.73
2019-04-21T23:41:17.385Z,10.73
2019-04-21T23:43:52.909Z,10.70
2019-04-21T23:46:24.458Z,10.68
2019-04-21T23:49:07.416Z,10.61
2019-04-21T23:51:32.430Z,10.56
2019-04-21T23:53:53.350Z,10.51
2019-04-21T23:56:31.528Z,10.45
2019-04-21T23:58:59.862Z,10.50
